mostra aiuto
Accedi o registrati
gp d'europa

MX 2016. GP d'Europa. Nagl e Herlings si aggiudicano le qualifiche

- La giornata d’apertura del GP d’Europa dà ragione al tedesco che dopo un avvio di stagione al rallentatore ha confermato di aver risolto i suoi problemi. Alle sue spalle Simpson e Febvre. 5° Cairoli. Nella MX2 Herlings precede Tonkov e Jonass
MX 2016. GP d'Europa. Nagl e Herlings si aggiudicano le qualifiche

Al rientro dalla due trasferte extraeuropee ci si era chiesto che fosse successo a Max Nagl, brillante mattatore in Qatar 2015 e quest’anno tornato a casa dopo la Thailandia con un misero 9° posto in classifica generale. Sulla strana sabbia di Valkenswaard, che non è più quel letto morbido costellato di buche di una volta, bensì un’insidiosa striscia di traiettorie molle sopra e dura sotto, il tedesco ha fatto sapere a tutti, prima in pista e poi in conferenza stampa, che i problemi riguardavano la sua moto e che ora è pronto per ritornare protagonistaE lo ha sottolineato vincendo la qualifica della MXGP, dopo uno scambio di colpi prima con Kevin Strijbos e poi con Tim Gajser, che hanno compiuto errori lasciando via libera all’ufficiale Husqvarna, che si è poi imposto su uno Shaun Simpson rinvenuto dalla 4ª piazza, su Romain Febvre e sullo sloveno della Honda Gariboldi.

Quinta piazza per Antonio Cairoli, che ha mantenuto il suo ritmo per tutta la gara davanti al compagno di squadra Glenn Coldenhoff preservando le forze per le due manche ufficiali.

 

 

MX2

Non c’è bisogno di dire a chi sia andata la MX2, visto che Jeffrey Herlings ha tagliato il traguardo 36 secondi in anticipo su Alex Tonkov e Pauls Jonass. Per lui è già pronto un inedito abbigliamento coi colori nazionali che, se tutto va secondo programma, lo accompagnerà in quella che è la sua 50ª vittoria iridata; 12° Giuseppe Tropepe, che ha preceduto di due posizioni Michele Cervellin e di cinque Samuele Bernardini.

 

 

La prima manche della classe femminile ha invece registrato il successo del pilota di casa Nancy Van De Ven, davanti alla ritrovata Kiara Fontanesi che all’ultimo giro ha dribblato la storica rivale Livia Lancelot.

 

 

Classifiche

MXGP - Qualifying Race - Classification
Pos Nr Rider Nat. Fed. Bike Time laps Diff. First Diff. Prev. Bestlaptime in lap Speed
1 12 Nagl, Maximilian GER DMSB Husqvarna 24:56.988 12 0:00.000 0:00.000 1:54.345 7 48.7
2 24 Simpson, Shaun GBR ACU KTM 25:04.920 12 0:07.932 0:07.932 1:54.403 1 48.7
3 461 Febvre, Romain FRA FFM Yamaha 25:06.655 12 0:09.667 0:01.735 1:54.428 1 48.7
4 243 Gajser, Tim SLO AMZS Honda 25:08.568 12 0:11.580 0:01.913 1:53.761 1 49
5 222 Cairoli, Antonio ITA FMI KTM 25:09.955 12 0:12.967 0:01.387 1:54.369 1 48.7
6 259 Coldenhoff, Glenn NED KNMV KTM 25:12.582 12 0:15.594 0:02.627 1:54.338 3 48.8
7 22 Strijbos, Kevin BEL FMB Suzuki 25:17.387 12 0:20.399 0:04.805 1:53.125 2 49.3
8 777 Bobryshev, Evgeny RUS MUL Honda 25:20.960 12 0:23.972 0:03.573 1:54.861 1 48.5
9 25 Desalle, Clement BEL FMB Kawasaki 25:34.069 12 0:37.081 0:13.109 1:56.180 3 48
10 89 Van Horebeek, Jeremy BEL FMB Yamaha 25:34.317 12 0:37.329 0:00.248 1:56.403 7 47.9
11 11 Bengtsson, Filip SWE SVEMO Suzuki 25:41.232 12 0:44.244 0:06.915 1:54.406 3 48.7
12 92 Guillod, Valentin SUI FMS Yamaha 25:42.007 12 0:45.019 0:00.775 1:57.260 4 47.5
13 7 Leok, Tanel EST EMF KTM 25:43.515 12 0:46.527 0:01.508 1:57.606 4 47.4
14 45 Nicholls, Jake GBR ACU Husqvarna 25:55.101 12 0:58.113 0:11.586 1:58.557 3 47
15 100 Searle, Tommy GBR ACU Kawasaki 26:00.631 12 1:03.643 0:05.530 1:57.486 3 47.4

 

MX2 - Qualifying Race - Classification
Pos Nr Rider Nat. Fed. Bike Time laps Diff. First Diff. Prev. Bestlaptime in lap Speed
1 84 Herlings, Jeffrey NED KNMV KTM 24:40.006 12 0:00.000 0:00.000 1:53.167 3 49.3
2 59 Tonkov, Aleksandr RUS KNMV Yamaha 25:16.009 12 0:36.003 0:36.003 1:56.225 5 48
3 41 Jonass, Pauls LAT LAMSF KTM 25:17.173 12 0:37.167 0:01.164 1:56.392 1 47.9
4 10 Vlaanderen, Calvin NED KNMV KTM 25:30.177 12 0:50.171 0:13.004 1:56.748 2 47.7
5 152 Petrov, Petar BUL QMMF Kawasaki 25:36.265 12 0:56.259 0:06.088 1:57.064 7 47.6
6 6 Paturel, Benoit FRA FFM Yamaha 25:38.117 12 0:58.111 0:01.852 1:56.842 9 47.7
7 95 Justs, Roberts LAT LAMSF KTM 25:54.445 12 1:14.439 0:16.328 1:58.312 2 47.1
8 161 Östlund, Alvin SWE SVEMO Yamaha 25:56.353 12 1:16.347 0:01.908 1:57.138 1 47.6
9 101 Zaragoza, Jorge ESP RFME Honda 26:08.831 12 1:28.825 0:12.478 1:57.863 1 47.3
10 88 van der Vlist, Freek NED KNMV Kawasaki 26:10.872 12 1:30.866 0:02.041 1:57.963 2 47.3
11 18 Brylyakov, Vsevolod RUS MFR Kawasaki 26:11.451 12 1:31.445 0:00.579 1:59.650 6 46.6
12 223 Tropepe, Giuseppe ITA FMI Husqvarna 26:12.517 12 1:32.511 0:01.066 1:59.623 2 46.6
13 91 Seewer, Jeremy SUI FMS Suzuki 26:16.981 12 1:36.975 0:04.464 1:57.777 10 47.3
14 747 Cervellin, Michele ITA FMI Honda 26:24.215 12 1:44.209 0:07.234 2:00.032 7 46.4
15 919 Watson, Ben GBR ACU Husqvarna 26:28.237 12 1:48.231 0:04.022 2:00.214 10 46.4
  • Lackey, Coggiola (BI)

    E finalmente una gara con i cancelletti pieni!!! 39 partenti sia nella mx2 che nella women, e 36 nella mx1...
    C'è pure David Philippaerts!!!!!
  • mauro-46-222, Anzola dell'Emilia (BO)

    Vai Tony e' il momento di risorgere !
    Mauro
Inserisci il tuo commento